Auke Bay, Alaska
Current Conditions -  °F | °C
As of 2:53 AM on Tuesday 27 Jan 2015 (Local Time) from PAJN Reporting Station
Few Clouds Few Clouds  
Wind Chill: -3°   Ceiling: Unl
Heat Index: -3°   Visibility: 10mi
Dew Point: -4°   Wind: 0mph
Humidity: 96%   Direction: NA
Pressure: 29.82"   Gusts: NA
Location:  58.38°N, 134.67°W
Report Text: PAJN 271153Z 00000KT 10SM FEW002 FEW180 M03/M04 A2982 RMK AO2 SLP098 I6002 T10331039 11017 21039 51005
Loading
Personal Weather Stations






























Interactive Weather Map New forecast layout! Learn more

10-Day Weather Forecast

Advertisements
Track Severe Weather on mobile